createdAt,value
2024-04-24T00:02:11.313Z,7.62
2024-04-24T00:04:38.403Z,7.60
2024-04-24T00:07:05.603Z,7.54
2024-04-24T00:09:32.767Z,7.53
2024-04-24T00:11:59.951Z,7.50
2024-04-24T00:14:27.143Z,7.33
2024-04-24T00:16:54.758Z,7.49
2024-04-24T00:19:21.854Z,7.46
2024-04-24T00:21:49.032Z,7.48
2024-04-24T00:24:16.147Z,7.38
2024-04-24T00:26:43.535Z,7.31
2024-04-24T00:29:10.621Z,7.00
2024-04-24T00:31:37.718Z,7.21
2024-04-24T00:34:04.746Z,7.05
2024-04-24T00:36:32.029Z,6.93
2024-04-24T00:38:59.138Z,6.83
2024-04-24T00:41:26.347Z,6.88
2024-04-24T00:43:53.465Z,6.70
2024-04-24T00:46:21.618Z,7.11
2024-04-24T00:48:48.986Z,6.50
2024-04-24T00:51:17.134Z,6.62
2024-04-24T00:53:44.231Z,6.45
2024-04-24T00:56:11.600Z,6.52
2024-04-24T00:58:39.401Z,6.46
2024-04-24T01:01:07.554Z,6.61
2024-04-24T01:03:34.663Z,6.65
2024-04-24T01:06:01.854Z,6.51
2024-04-24T01:08:29.157Z,6.56
2024-04-24T01:11:00.133Z,6.60
2024-04-24T01:13:28.028Z,6.82
2024-04-24T01:16:00.806Z,6.33
2024-04-24T01:18:31.530Z,6.53
2024-04-24T01:21:02.809Z,6.53
2024-04-24T01:23:36.026Z,6.58
2024-04-24T01:26:17.440Z,6.57
2024-04-24T01:28:44.610Z,6.50
2024-04-24T01:31:11.674Z,5.90
2024-04-24T01:33:38.920Z,6.58
2024-04-24T01:36:06.356Z,6.40
2024-04-24T01:38:33.474Z,6.50
2024-04-24T01:41:00.656Z,7.08
2024-04-24T01:43:27.871Z,6.42
2024-04-24T01:45:54.922Z,6.37
2024-04-24T01:48:22.160Z,6.26
2024-04-24T01:50:49.249Z,6.00
2024-04-24T01:53:16.614Z,6.04
2024-04-24T01:55:43.797Z,5.99
2024-04-24T01:58:10.906Z,5.86
2024-04-24T02:00:38.024Z,5.31
2024-04-24T02:03:05.594Z,6.04
2024-04-24T02:05:32.713Z,5.87
2024-04-24T02:07:59.898Z,5.98
2024-04-24T02:10:26.992Z,6.02
2024-04-24T02:12:54.201Z,6.23
2024-04-24T02:15:21.343Z,6.94
2024-04-24T02:17:48.596Z,6.43
2024-04-24T02:20:15.730Z,6.52
2024-04-24T02:22:43.012Z,6.70
2024-04-24T02:25:10.846Z,6.59
2024-04-24T02:27:37.962Z,7.34
2024-04-24T02:30:05.603Z,6.72
2024-04-24T02:32:32.884Z,6.89
2024-04-24T02:35:00.105Z,6.87
2024-04-24T02:37:28.370Z,6.86
2024-04-24T02:39:55.456Z,7.00
2024-04-24T02:42:22.554Z,7.60
2024-04-24T02:44:49.606Z,6.96
2024-04-24T02:47:16.941Z,7.05
2024-04-24T02:49:44.238Z,7.20
2024-04-24T02:52:11.335Z,6.71
2024-04-24T02:54:38.427Z,7.49
2024-04-24T02:57:05.674Z,7.77
2024-04-24T02:59:32.752Z,8.47
2024-04-24T03:01:59.994Z,9.56
2024-04-24T03:04:27.020Z,10.47
2024-04-24T03:06:54.186Z,11.90
2024-04-24T03:09:21.309Z,13.01
2024-04-24T03:11:48.439Z,13.98
2024-04-24T03:14:19.259Z,14.82
2024-04-24T03:16:46.577Z,15.34
2024-04-24T03:19:13.692Z,15.66
2024-04-24T03:21:40.836Z,15.66
2024-04-24T03:24:08.533Z,16.95
2024-04-24T03:26:35.729Z,16.91
2024-04-24T03:29:03.219Z,17.94
2024-04-24T03:31:33.851Z,18.83
2024-04-24T03:34:01.258Z,19.16
2024-04-24T03:36:28.259Z,20.25
2024-04-24T03:38:57.286Z,20.74
2024-04-24T03:41:24.470Z,20.49
2024-04-24T03:43:51.596Z,20.64
2024-04-24T03:46:18.672Z,20.86
2024-04-24T03:48:45.813Z,21.04
2024-04-24T03:51:13.206Z,21.13
2024-04-24T03:53:40.339Z,21.28
2024-04-24T03:56:08.432Z,21.56
2024-04-24T03:58:35.767Z,22.62
2024-04-24T04:01:02.973Z,22.10
2024-04-24T04:03:30.026Z,22.38
2024-04-24T04:05:57.077Z,22.20
2024-04-24T04:08:24.565Z,22.09
2024-04-24T04:10:52.074Z,18.36
2024-04-24T04:13:19.175Z,22.26
2024-04-24T04:15:46.221Z,22.17
2024-04-24T04:18:13.415Z,22.27
2024-04-24T04:20:40.592Z,22.17
2024-04-24T04:23:07.696Z,22.03
2024-04-24T04:25:34.760Z,21.90
2024-04-24T04:28:01.783Z,21.70
2024-04-24T04:30:28.983Z,19.77
2024-04-24T04:32:56.041Z,21.52
2024-04-24T04:35:23.241Z,21.91
2024-04-24T04:37:50.420Z,21.98
2024-04-24T04:40:17.476Z,20.89
2024-04-24T04:42:44.527Z,20.91
2024-04-24T04:45:11.649Z,20.57
2024-04-24T04:47:38.847Z,20.44
2024-04-24T04:50:06.612Z,20.28
2024-04-24T04:52:33.703Z,20.04
2024-04-24T04:55:00.770Z,20.27
2024-04-24T04:57:27.867Z,19.90
2024-04-24T04:59:54.927Z,19.58
2024-04-24T05:02:22.167Z,19.40
2024-04-24T05:04:49.337Z,19.03
2024-04-24T05:07:16.478Z,18.38
2024-04-24T05:09:43.574Z,19.21
2024-04-24T05:12:10.662Z,19.56
2024-04-24T05:14:37.763Z,19.64
2024-04-24T05:17:04.913Z,18.88
2024-04-24T05:19:32.002Z,19.10
2024-04-24T05:21:59.100Z,19.42
2024-04-24T05:24:26.134Z,19.09
2024-04-24T05:26:54.529Z,18.83
2024-04-24T05:29:21.754Z,18.80
2024-04-24T05:31:48.872Z,19.00
2024-04-24T05:34:16.048Z,19.13
2024-04-24T05:36:43.380Z,18.99
2024-04-24T05:39:10.479Z,19.06
2024-04-24T05:41:38.856Z,18.84
2024-04-24T05:44:05.939Z,19.04
2024-04-24T05:46:33.034Z,18.98
2024-04-24T05:49:00.134Z,19.13
2024-04-24T05:51:27.290Z,19.40
2024-04-24T05:53:54.418Z,19.22
2024-04-24T05:56:21.523Z,19.20
2024-04-24T05:58:48.686Z,19.32
2024-04-24T06:01:15.887Z,18.79
2024-04-24T06:03:42.983Z,18.57
2024-04-24T06:06:12.338Z,18.93
2024-04-24T06:08:39.370Z,19.23
2024-04-24T06:11:06.518Z,19.25
2024-04-24T06:13:33.785Z,19.39
2024-04-24T06:16:00.862Z,19.42
2024-04-24T06:18:27.936Z,19.41
2024-04-24T06:20:55.053Z,18.91
2024-04-24T06:23:22.277Z,18.87
2024-04-24T06:25:49.508Z,19.19
2024-04-24T06:28:16.636Z,19.21
2024-04-24T06:30:45.548Z,19.34
2024-04-24T06:33:12.770Z,19.86
2024-04-24T06:35:40.065Z,19.22
2024-04-24T06:38:09.290Z,18.98
2024-04-24T06:40:36.454Z,18.97
2024-04-24T06:43:03.755Z,20.05
2024-04-24T06:45:30.912Z,18.94
2024-04-24T06:47:58.067Z,18.95
2024-04-24T06:50:25.213Z,18.87
2024-04-24T06:52:53.422Z,19.22
2024-04-24T06:55:20.494Z,19.54
2024-04-24T06:57:47.579Z,19.25
2024-04-24T07:00:14.893Z,19.35
2024-04-24T07:02:42.084Z,18.62
2024-04-24T07:05:09.259Z,19.09
2024-04-24T07:07:36.439Z,19.00
2024-04-24T07:10:03.572Z,19.19
2024-04-24T07:12:30.663Z,18.95
2024-04-24T07:14:57.682Z,19.43
2024-04-24T07:17:24.952Z,19.75
2024-04-24T07:19:52.167Z,19.97
2024-04-24T07:22:20.899Z,19.72
2024-04-24T07:24:48.427Z,19.43
2024-04-24T07:27:18.777Z,19.39
2024-04-24T07:29:47.699Z,19.26
2024-04-24T07:32:17.667Z,19.60
2024-04-24T07:34:44.685Z,18.19
2024-04-24T07:37:13.124Z,19.64
2024-04-24T07:39:40.773Z,19.59
2024-04-24T07:42:07.829Z,20.98
2024-04-24T07:44:35.028Z,19.99
2024-04-24T07:47:04.276Z,19.83
2024-04-24T07:49:31.745Z,19.79
2024-04-24T07:51:58.768Z,19.93
2024-04-24T07:54:25.833Z,20.06
2024-04-24T07:56:53.281Z,19.31
2024-04-24T07:59:20.330Z,19.83
2024-04-24T08:01:47.750Z,20.05
2024-04-24T08:04:15.083Z,20.08
2024-04-24T08:06:42.633Z,20.89
2024-04-24T08:09:13.638Z,20.92
2024-04-24T08:11:40.835Z,18.92
2024-04-24T08:14:08.077Z,20.90
2024-04-24T08:16:36.727Z,20.51
2024-04-24T08:19:05.132Z,20.67
2024-04-24T08:21:32.223Z,20.03
2024-04-24T08:23:59.987Z,20.62
2024-04-24T08:26:28.907Z,21.16
2024-04-24T08:28:56.123Z,20.81
2024-04-24T08:31:24.571Z,21.36
2024-04-24T08:33:51.664Z,21.10
2024-04-24T08:36:20.305Z,20.85
2024-04-24T08:38:47.426Z,20.99
2024-04-24T08:41:14.820Z,20.70
2024-04-24T08:43:45.033Z,21.06
2024-04-24T08:46:13.726Z,20.52
2024-04-24T08:48:45.986Z,21.88
2024-04-24T08:51:17.712Z,20.89
2024-04-24T08:54:12.072Z,21.71
2024-04-24T08:56:54.295Z,21.31
2024-04-24T08:59:24.450Z,21.37
2024-04-24T09:02:01.954Z,21.02
2024-04-24T09:04:30.339Z,22.02
2024-04-24T09:07:00.310Z,21.21
2024-04-24T09:09:28.936Z,22.05
2024-04-24T09:12:01.054Z,21.04
2024-04-24T09:14:30.646Z,22.05
2024-04-24T09:16:58.998Z,21.54
2024-04-24T09:19:27.631Z,21.69
2024-04-24T09:21:54.773Z,21.86
2024-04-24T09:24:22.096Z,21.87
2024-04-24T09:26:49.951Z,21.75
2024-04-24T09:29:17.801Z,22.03
2024-04-24T09:31:46.603Z,22.29
2024-04-24T09:34:16.076Z,22.39
2024-04-24T09:36:44.897Z,21.89
2024-04-24T09:39:17.254Z,22.11
2024-04-24T09:41:47.725Z,22.30
2024-04-24T09:44:16.636Z,21.93
2024-04-24T09:46:51.779Z,21.95
2024-04-24T09:49:21.060Z,21.82
2024-04-24T09:51:50.522Z,21.77
2024-04-24T09:54:19.458Z,22.29
2024-04-24T09:56:46.719Z,21.84
2024-04-24T09:59:14.811Z,21.53
2024-04-24T10:01:52.472Z,21.56
2024-04-24T10:04:20.739Z,22.15
2024-04-24T10:06:51.342Z,21.49
2024-04-24T10:09:23.270Z,20.30
2024-04-24T10:11:56.768Z,21.26
2024-04-24T10:14:26.601Z,21.89
2024-04-24T10:17:14.476Z,22.11
2024-04-24T10:19:43.983Z,21.79
2024-04-24T10:22:11.609Z,21.58
2024-04-24T10:24:39.768Z,21.57
2024-04-24T10:27:07.675Z,21.36
2024-04-24T10:29:39.282Z,22.33
2024-04-24T10:32:09.374Z,21.63
2024-04-24T10:34:39.340Z,21.42
2024-04-24T10:37:08.910Z,21.72
2024-04-24T10:39:45.806Z,21.87
2024-04-24T10:42:16.235Z,21.81
2024-04-24T10:45:02.006Z,21.64
2024-04-24T10:47:29.287Z,22.11
2024-04-24T10:49:58.518Z,22.07
2024-04-24T10:52:26.378Z,22.09
2024-04-24T10:54:54.805Z,21.87
2024-04-24T10:57:32.099Z,21.82
2024-04-24T11:00:12.580Z,22.26
2024-04-24T11:02:40.927Z,21.70
2024-04-24T11:05:08.176Z,21.59
2024-04-24T11:07:38.827Z,21.73
2024-04-24T11:10:08.394Z,21.79
2024-04-24T11:12:40.032Z,21.04
2024-04-24T11:15:18.620Z,21.64
2024-04-24T11:17:49.562Z,21.53
2024-04-24T11:20:18.970Z,21.69
2024-04-24T11:22:46.281Z,21.71
2024-04-24T11:25:16.982Z,21.73
2024-04-24T11:27:47.184Z,21.82
2024-04-24T11:30:17.669Z,22.38
2024-04-24T11:32:49.181Z,21.82
2024-04-24T11:35:29.861Z,21.83
2024-04-24T11:37:57.184Z,21.77
2024-04-24T11:40:25.899Z,21.63
2024-04-24T11:42:55.397Z,21.55
2024-04-24T11:45:26.145Z,21.56
2024-04-24T11:47:53.700Z,21.64
2024-04-24T11:50:21.375Z,21.51
2024-04-24T11:52:49.308Z,21.35
2024-04-24T11:55:17.645Z,21.32
2024-04-24T11:57:46.110Z,21.02
2024-04-24T12:00:33.212Z,20.81
2024-04-24T12:03:04.478Z,21.11
2024-04-24T12:05:32.873Z,21.08
2024-04-24T12:08:00.217Z,21.22
2024-04-24T12:10:27.494Z,21.23
2024-04-24T12:12:56.828Z,21.32
2024-04-24T12:15:24.503Z,21.52
2024-04-24T12:17:51.675Z,21.15
2024-04-24T12:20:18.882Z,20.48
2024-04-24T12:22:46.024Z,21.14
2024-04-24T12:25:13.220Z,21.14
2024-04-24T12:27:41.434Z,21.14
2024-04-24T12:30:11.405Z,20.95
2024-04-24T12:32:39.916Z,20.68
2024-04-24T12:35:09.827Z,20.67
2024-04-24T12:37:41.265Z,20.55
2024-04-24T12:40:09.285Z,20.49
2024-04-24T12:42:38.748Z,20.47
2024-04-24T12:45:08.372Z,20.30
2024-04-24T12:47:36.919Z,20.21
2024-04-24T12:50:04.400Z,19.89
2024-04-24T12:52:36.089Z,19.74
2024-04-24T12:55:03.356Z,19.74
2024-04-24T12:57:30.459Z,19.63
2024-04-24T12:59:58.865Z,19.77
2024-04-24T13:02:26.731Z,19.83
2024-04-24T13:04:54.027Z,19.88
2024-04-24T13:07:22.387Z,19.77
2024-04-24T13:09:50.931Z,19.85
2024-04-24T13:12:21.979Z,19.68
2024-04-24T13:14:50.879Z,19.81
2024-04-24T13:17:20.844Z,19.90
2024-04-24T13:19:49.462Z,19.86
2024-04-24T13:22:17.243Z,19.71
2024-04-24T13:24:44.421Z,19.61
2024-04-24T13:27:11.621Z,19.55
2024-04-24T13:29:42.874Z,19.67
2024-04-24T13:32:10.167Z,19.60
2024-04-24T13:34:38.528Z,19.45
2024-04-24T13:37:05.645Z,19.56
2024-04-24T13:39:32.668Z,19.65
2024-04-24T13:41:59.803Z,19.67
2024-04-24T13:44:30.020Z,19.69
2024-04-24T13:46:57.303Z,19.67
2024-04-24T13:49:24.828Z,19.45
2024-04-24T13:51:52.066Z,19.46
2024-04-24T13:54:19.243Z,19.57
2024-04-24T13:56:47.184Z,19.49
2024-04-24T13:59:14.352Z,19.34
2024-04-24T14:01:41.488Z,20.57
2024-04-24T14:04:11.683Z,19.86
2024-04-24T14:06:38.980Z,19.11
2024-04-24T14:09:06.155Z,19.09
2024-04-24T14:12:10.733Z,19.13
2024-04-24T14:14:37.937Z,18.84
2024-04-24T14:17:05.041Z,18.70
2024-04-24T14:19:32.919Z,18.82
2024-04-24T14:21:59.937Z,18.81
2024-04-24T14:24:27.732Z,18.66
2024-04-24T14:26:57.146Z,18.59
2024-04-24T14:29:24.303Z,18.72
2024-04-24T14:32:09.860Z,18.35
2024-04-24T14:34:37.053Z,18.33
2024-04-24T14:37:04.373Z,18.11
2024-04-24T14:39:31.782Z,17.93
2024-04-24T14:41:58.834Z,18.03
2024-04-24T14:44:26.932Z,17.83
2024-04-24T14:46:54.331Z,18.03
2024-04-24T14:49:21.635Z,17.66
2024-04-24T14:51:51.419Z,17.50
2024-04-24T14:54:19.179Z,16.93
2024-04-24T14:56:46.222Z,17.23
2024-04-24T14:59:13.384Z,16.32
2024-04-24T15:01:40.624Z,16.79
2024-04-24T15:04:10.856Z,16.98
2024-04-24T15:07:09.200Z,16.33
2024-04-24T15:09:36.721Z,17.06
2024-04-24T15:12:04.855Z,17.16
2024-04-24T15:14:51.037Z,17.33
2024-04-24T15:17:18.375Z,17.44
2024-04-24T15:19:46.047Z,17.37
2024-04-24T15:22:13.480Z,16.71
2024-04-24T15:24:42.096Z,17.59
2024-04-24T15:27:09.718Z,17.42
2024-04-24T15:29:36.940Z,17.55
2024-04-24T15:32:06.090Z,17.56
2024-04-24T15:34:33.362Z,17.65
2024-04-24T15:37:00.532Z,17.69
2024-04-24T15:39:27.987Z,17.37
2024-04-24T15:41:55.159Z,16.96
2024-04-24T15:44:25.458Z,16.92
2024-04-24T15:46:52.881Z,17.03
2024-04-24T15:49:22.649Z,17.40
2024-04-24T15:51:49.796Z,16.94
2024-04-24T15:54:17.129Z,17.08
2024-04-24T15:56:44.969Z,16.82
2024-04-24T15:59:12.154Z,15.50
2024-04-24T16:01:40.441Z,16.76
2024-04-24T16:04:07.624Z,16.73
2024-04-24T16:06:34.942Z,16.71
2024-04-24T16:09:02.026Z,16.85
2024-04-24T16:11:29.262Z,16.86
2024-04-24T16:13:57.370Z,16.65
2024-04-24T16:16:25.583Z,16.69
2024-04-24T16:18:53.622Z,16.52
2024-04-24T16:21:21.626Z,16.48
2024-04-24T16:23:49.753Z,16.39
2024-04-24T16:26:17.764Z,15.81
2024-04-24T16:28:45.795Z,16.45
2024-04-24T16:31:12.918Z,16.22
2024-04-24T16:33:40.883Z,16.79
2024-04-24T16:36:09.615Z,16.07
2024-04-24T16:38:38.167Z,15.81
2024-04-24T16:41:23.872Z,15.92
2024-04-24T16:43:53.065Z,15.94
2024-04-24T16:46:21.174Z,15.88
2024-04-24T16:48:48.497Z,15.83
2024-04-24T16:51:15.710Z,15.79
2024-04-24T16:53:42.780Z,15.90
2024-04-24T16:56:10.785Z,15.81
2024-04-24T16:58:39.751Z,15.92
2024-04-24T17:01:06.882Z,15.82
2024-04-24T17:03:34.000Z,15.09
2024-04-24T17:06:02.352Z,15.73
2024-04-24T17:08:30.743Z,15.72
2024-04-24T17:11:00.720Z,15.81
2024-04-24T17:13:29.100Z,15.85
2024-04-24T17:15:56.622Z,15.73
2024-04-24T17:18:24.436Z,15.61
2024-04-24T17:20:53.722Z,15.67
2024-04-24T17:23:21.540Z,15.76
2024-04-24T17:25:49.700Z,15.72
2024-04-24T17:28:16.988Z,15.81
2024-04-24T17:30:44.391Z,15.68
2024-04-24T17:33:12.620Z,15.55
2024-04-24T17:35:39.794Z,15.59
2024-04-24T17:38:06.924Z,15.64
2024-04-24T17:40:34.108Z,15.48
2024-04-24T17:43:01.171Z,15.33
2024-04-24T17:45:28.360Z,15.35
2024-04-24T17:47:57.079Z,15.38
2024-04-24T17:50:24.346Z,15.42
2024-04-24T17:52:51.415Z,15.45
2024-04-24T17:55:18.679Z,15.34
2024-04-24T17:57:45.855Z,15.39
2024-04-24T18:00:14.199Z,15.29
2024-04-24T18:02:42.762Z,15.29
2024-04-24T18:05:09.858Z,15.23
2024-04-24T18:07:37.153Z,15.14
2024-04-24T18:10:04.450Z,15.04
2024-04-24T18:12:32.696Z,15.03
2024-04-24T18:15:01.154Z,14.94
2024-04-24T18:17:28.386Z,15.18
2024-04-24T18:19:55.481Z,15.26
2024-04-24T18:22:22.548Z,14.48
2024-04-24T18:24:49.954Z,15.01
2024-04-24T18:27:17.021Z,14.89
2024-04-24T18:29:44.446Z,15.08
2024-04-24T18:32:11.956Z,13.81
2024-04-24T18:34:39.696Z,15.10
2024-04-24T18:37:06.841Z,14.99
2024-04-24T18:39:34.201Z,14.73
2024-04-24T18:42:02.636Z,15.02
2024-04-24T18:44:29.925Z,14.90
2024-04-24T18:46:57.516Z,14.26
2024-04-24T18:49:27.772Z,14.88
2024-04-24T18:51:54.874Z,14.93
2024-04-24T18:54:21.994Z,14.85
2024-04-24T18:56:50.222Z,14.96
2024-04-24T18:59:19.072Z,15.01
2024-04-24T19:01:46.447Z,14.98
2024-04-24T19:04:15.034Z,14.99
2024-04-24T19:06:43.684Z,14.98
2024-04-24T19:09:10.753Z,15.03
2024-04-24T19:11:40.573Z,14.73
2024-04-24T19:14:07.797Z,14.91
2024-04-24T19:16:36.523Z,14.85
2024-04-24T19:19:04.461Z,14.84
2024-04-24T19:21:32.760Z,14.94
2024-04-24T19:24:00.368Z,14.88
2024-04-24T19:26:29.614Z,14.96
2024-04-24T19:28:56.886Z,14.29
2024-04-24T19:31:38.872Z,14.42
2024-04-24T19:34:07.213Z,15.01
2024-04-24T19:36:37.008Z,14.95
2024-04-24T19:39:04.952Z,15.01
2024-04-24T19:41:33.548Z,15.44
2024-04-24T19:44:01.600Z,14.90
2024-04-24T19:46:29.552Z,14.89
2024-04-24T19:48:56.651Z,14.90
2024-04-24T19:51:23.740Z,14.92
2024-04-24T19:53:53.933Z,14.98
2024-04-24T19:56:21.905Z,14.99
2024-04-24T19:58:49.019Z,14.94
2024-04-24T20:01:16.240Z,15.12
2024-04-24T20:03:43.567Z,15.04
2024-04-24T20:06:11.697Z,15.00
2024-04-24T20:08:39.411Z,14.93
2024-04-24T20:11:08.122Z,15.58
2024-04-24T20:13:36.041Z,14.22
2024-04-24T20:16:07.305Z,14.79
2024-04-24T20:18:36.485Z,14.81
2024-04-24T20:21:13.636Z,14.64
2024-04-24T20:23:40.932Z,14.66
2024-04-24T20:26:13.553Z,14.84
2024-04-24T20:28:40.741Z,14.85
2024-04-24T20:31:08.193Z,16.09
2024-04-24T20:33:35.546Z,14.82
2024-04-24T20:36:15.519Z,14.11
2024-04-24T20:38:42.726Z,14.88
2024-04-24T20:41:11.272Z,14.88
2024-04-24T20:43:38.497Z,14.82
2024-04-24T20:46:05.818Z,14.98
2024-04-24T20:48:34.527Z,14.89
2024-04-24T20:51:02.396Z,14.98
2024-04-24T20:53:30.108Z,14.96
2024-04-24T20:55:58.308Z,14.96
2024-04-24T20:58:28.703Z,15.54
2024-04-24T21:00:55.796Z,15.21
2024-04-24T21:03:23.017Z,15.10
2024-04-24T21:05:50.772Z,14.93
2024-04-24T21:08:17.976Z,14.99
2024-04-24T21:10:45.066Z,14.97
2024-04-24T21:13:12.166Z,14.83
2024-04-24T21:15:39.215Z,14.83
2024-04-24T21:18:06.450Z,14.91
2024-04-24T21:20:33.585Z,14.74
2024-04-24T21:23:00.802Z,14.73
2024-04-24T21:25:27.912Z,14.63
2024-04-24T21:27:58.075Z,14.66
2024-04-24T21:30:25.156Z,14.63
2024-04-24T21:32:52.266Z,14.71
2024-04-24T21:35:19.385Z,14.82
2024-04-24T21:37:46.499Z,14.66
2024-04-24T21:40:13.762Z,13.99
2024-04-24T21:42:41.875Z,14.65
2024-04-24T21:45:09.410Z,14.56
2024-04-24T21:47:36.602Z,15.12
2024-04-24T21:50:04.149Z,14.51
2024-04-24T21:52:31.436Z,14.03
2024-04-24T21:54:59.070Z,14.49
2024-04-24T21:57:26.231Z,13.96
2024-04-24T21:59:53.309Z,14.51
2024-04-24T22:02:20.423Z,14.28
2024-04-24T22:04:47.545Z,14.28
2024-04-24T22:07:14.602Z,14.36
2024-04-24T22:09:41.714Z,14.46
2024-04-24T22:12:08.940Z,15.08
2024-04-24T22:14:36.088Z,14.43
2024-04-24T22:17:06.764Z,14.46
2024-04-24T22:19:41.275Z,14.46
2024-04-24T22:22:08.475Z,14.41
2024-04-24T22:24:35.559Z,14.42
2024-04-24T22:27:02.724Z,14.39
2024-04-24T22:29:29.907Z,14.89
2024-04-24T22:31:56.944Z,14.33
2024-04-24T22:34:24.042Z,14.95
2024-04-24T22:36:51.062Z,14.27
2024-04-24T22:39:20.752Z,14.14
2024-04-24T22:41:47.953Z,14.73
2024-04-24T22:44:15.004Z,14.21
2024-04-24T22:46:42.062Z,14.07
2024-04-24T22:49:09.127Z,14.24
2024-04-24T22:51:36.136Z,14.15
2024-04-24T22:54:03.156Z,14.20
2024-04-24T22:56:30.306Z,14.20
2024-04-24T22:58:57.371Z,14.09
2024-04-24T23:01:24.497Z,14.01
2024-04-24T23:03:51.641Z,14.03
2024-04-24T23:06:18.712Z,14.04
2024-04-24T23:08:45.728Z,13.95
2024-04-24T23:11:13.337Z,14.15
2024-04-24T23:13:41.141Z,13.46
2024-04-24T23:16:08.337Z,14.11
2024-04-24T23:18:36.083Z,14.03
2024-04-24T23:21:03.255Z,14.08
2024-04-24T23:23:30.354Z,13.91
2024-04-24T23:25:57.552Z,13.88
2024-04-24T23:28:24.589Z,13.85
2024-04-24T23:30:51.582Z,13.92
2024-04-24T23:33:18.704Z,14.03
2024-04-24T23:35:45.763Z,14.15
2024-04-24T23:38:13.414Z,14.02
2024-04-24T23:40:40.485Z,13.91
2024-04-24T23:43:08.754Z,14.01
2024-04-24T23:45:35.842Z,13.88
2024-04-24T23:48:03.001Z,13.33
2024-04-24T23:50:30.111Z,14.00
2024-04-24T23:52:57.152Z,13.96
2024-04-24T23:55:24.199Z,13.93
2024-04-24T23:57:51.208Z,13.84
